Time;durP1;ratioP1;P1;durP2;ratioP2;P2;SDS_P1;SDS_P2;PMS_P1;PMS_P2;Temp;Humidity;BMP_temperature;BMP_pressure;BME280_temperature;BME280_humidity;BME280_pressure;Samples;Min_cycle;Max_cycle;Signal;HPM_P1;HPM_P2
2024/01/10 00:00:01;;;;;;;37.65;20.00;;;;;;;-10.39;91.36;146073.13;10627706;27;20039;-74
2024/01/10 00:05:05;;;;;;;27.48;16.70;;;;;;;-10.50;92.04;146046.47;10627864;27;20083;-74
2024/01/10 00:10:07;;;;;;;36.20;16.52;;;;;;;-10.51;91.19;146042.66;10628559;27;20031;-74
2024/01/10 00:15:09;;;;;;;38.35;17.70;;;;;;;-10.68;92.46;146002.09;10628073;27;20043;-74
2024/01/10 00:20:11;;;;;;;53.05;20.10;;;;;;;-10.79;93.40;145972.94;10627890;27;20560;-74
2024/01/10 00:25:13;;;;;;;42.80;17.67;;;;;;;-10.65;93.30;146008.44;10628665;28;20064;-74
2024/01/10 00:30:15;;;;;;;35.92;16.90;;;;;;;-10.69;92.47;145998.28;10626940;27;20570;-74
2024/01/10 00:35:17;;;;;;;32.67;17.85;;;;;;;-10.60;91.99;146021.13;10627073;27;20043;-74
2024/01/10 00:40:18;;;;;;;30.13;14.57;;;;;;;-10.65;90.91;146007.19;10626890;27;20047;-75
2024/01/10 00:45:20;;;;;;;28.77;15.05;;;;;;;-10.61;90.20;146017.31;10608555;28;20092;-75
2024/01/10 00:50:22;;;;;;;31.83;15.55;;;;;;;-10.64;90.25;146010.97;10626814;27;20479;-75
2024/01/10 00:55:24;;;;;;;29.63;14.38;;;;;;;-10.83;90.43;145964.06;10627336;27;20046;-75
2024/01/10 01:00:26;;;;;;;49.53;16.40;;;;;;;-10.65;90.41;146007.19;10629871;27;20522;-75
2024/01/10 01:05:28;;;;;;;32.75;16.15;;;;;;;-10.88;90.83;145951.41;10635808;27;20522;-75
2024/01/10 01:10:30;;;;;;;17.73;14.95;;;;;;;-10.67;90.88;146003.34;10634114;27;20100;-74
2024/01/10 01:15:34;;;;;;;37.45;15.73;;;;;;;-11.07;91.19;145904.47;10634833;27;20073;-74
2024/01/10 01:20:36;;;;;;;40.97;16.88;;;;;;;-11.06;93.07;145905.78;10633181;27;20064;-75
2024/01/10 01:25:38;;;;;;;36.90;13.95;;;;;;;-11.06;92.85;145905.78;10634868;27;20062;-75
2024/01/10 01:30:40;;;;;;;33.90;16.88;;;;;;;-10.95;91.97;145933.63;10633687;27;20099;-75
2024/01/10 01:35:42;;;;;;;35.53;14.77;;;;;;;-10.87;89.58;145952.66;10634007;27;20046;-75
2024/01/10 01:40:43;;;;;;;29.60;14.98;;;;;;;-11.03;89.12;145913.34;10633166;27;20058;-74
2024/01/10 01:45:45;;;;;;;34.50;15.73;;;;;;;-11.04;90.74;145912.09;10632834;27;20047;-76
2024/01/10 01:50:50;;;;;;;29.20;17.52;;;;;;;-11.16;88.62;145880.41;10634897;27;20129;-75
2024/01/10 01:55:53;;;;;;;28.52;15.23;;;;;;;-11.04;90.44;145910.84;10634278;27;20544;-75
2024/01/10 02:00:55;;;;;;;29.40;15.07;;;;;;;-10.94;89.30;145937.44;10634492;27;20051;-75
2024/01/10 02:05:57;;;;;;;37.72;16.50;;;;;;;-11.36;89.06;145832.28;10632942;27;20103;-75
2024/01/10 02:11:01;;;;;;;41.47;16.92;;;;;;;-11.51;90.09;145794.25;10632884;27;20043;-75
2024/01/10 02:16:04;;;;;;;24.63;13.35;;;;;;;-11.47;91.18;145805.63;10632372;27;20043;-75
2024/01/10 02:21:06;;;;;;;24.20;15.73;;;;;;;-11.57;91.09;145780.31;10632139;27;20108;-75
2024/01/10 02:26:08;;;;;;;23.00;13.45;;;;;;;-11.57;91.66;145779.06;10631300;27;20043;-75
2024/01/10 02:31:10;;;;;;;51.25;15.20;;;;;;;-11.54;92.00;145787.94;10632063;27;20075;-74
2024/01/10 02:36:12;;;;;;;36.70;18.55;;;;;;;-10.93;89.80;145938.75;10632310;27;20372;-74
2024/01/10 02:41:14;;;;;;;35.75;14.65;;;;;;;-11.01;88.85;145918.44;10632271;27;20432;-75
2024/01/10 02:46:16;;;;;;;33.42;14.20;;;;;;;-11.03;90.63;145913.34;10632106;27;20495;-75
2024/01/10 02:51:18;;;;;;;28.92;14.45;;;;;;;-11.30;90.68;145847.47;10630912;27;20089;-75
2024/01/10 02:56:20;;;;;;;34.80;14.55;;;;;;;-11.23;92.39;145865.22;10629996;27;20051;-75
2024/01/10 03:01:21;;;;;;;32.45;15.13;;;;;;;-11.00;90.82;145922.22;10629439;27;20108;-75
2024/01/10 03:06:24;;;;;;;20.73;14.00;;;;;;;-11.09;90.43;145898.16;10629624;27;20118;-75
2024/01/10 03:11:26;;;;;;;29.38;15.48;;;;;;;-11.36;90.38;145831.00;10612182;27;20040;-75
2024/01/10 03:16:28;;;;;;;31.55;12.98;;;;;;;-11.22;90.55;145867.75;10630693;27;20088;-75
2024/01/10 03:21:30;;;;;;;32.05;13.77;;;;;;;-11.72;91.16;145743.59;10628968;27;20600;-74
2024/01/10 03:26:32;;;;;;;39.42;16.00;;;;;;;-11.38;91.31;145825.91;10628519;27;20043;-75
2024/01/10 03:31:33;;;;;;;36.53;14.93;;;;;;;-11.57;91.09;145780.31;10627168;27;20043;-76
2024/01/10 03:36:35;;;;;;;32.95;15.52;;;;;;;-11.56;92.69;145782.84;10628443;27;20087;-75
2024/01/10 03:41:38;;;;;;;26.35;15.23;;;;;;;-11.70;92.85;145747.38;10626564;27;20050;-75
2024/01/10 03:46:39;;;;;;;34.08;15.73;;;;;;;-11.20;90.91;145872.84;10628782;27;20046;-75
2024/01/10 03:51:41;;;;;;;22.20;13.38;;;;;;;-11.34;89.23;145837.31;10628768;27;20035;-75
2024/01/10 03:56:43;;;;;;;35.58;14.60;;;;;;;-11.51;90.04;145794.25;10628735;27;20108;-75
2024/01/10 04:01:45;;;;;;;23.05;14.00;;;;;;;-11.46;90.91;145806.94;10629068;27;20039;-76
2024/01/10 04:06:47;;;;;;;43.22;14.75;;;;;;;-11.40;89.41;145822.13;10628512;27;20050;-76
2024/01/10 04:11:49;;;;;;;32.13;14.35;;;;;;;-11.42;90.10;145817.03;10627544;27;20043;-74
2024/01/10 04:16:52;;;;;;;39.17;15.40;;;;;;;-11.82;90.27;145717.03;10627388;27;20074;-75
2024/01/10 04:21:53;;;;;;;27.00;13.75;;;;;;;-11.60;92.23;145771.44;10627795;27;20035;-75
2024/01/10 04:26:55;;;;;;;29.17;15.27;;;;;;;-11.71;91.07;145746.13;10628084;27;20091;-75
2024/01/10 04:31:57;;;;;;;27.10;14.05;;;;;;;-11.18;90.47;145877.88;10628458;27;20039;-75
2024/01/10 04:36:59;;;;;;;21.13;13.43;;;;;;;-11.52;89.25;145791.72;10635571;27;20053;-75
2024/01/10 04:42:02;;;;;;;23.60;13.27;;;;;;;-11.90;90.42;145696.81;10636442;27;20043;-75
2024/01/10 04:47:04;;;;;;;35.60;13.57;;;;;;;-11.92;91.73;145691.72;10637630;27;20103;-74
2024/01/10 04:52:06;;;;;;;24.10;13.25;;;;;;;-11.70;92.58;145748.66;10637500;27;20035;-75
2024/01/10 04:57:08;;;;;;;28.70;15.02;;;;;;;-11.75;92.59;145736.00;10635775;27;20072;-75
2024/01/10 05:02:10;;;;;;;30.05;16.27;;;;;;;-11.74;93.33;145737.25;10635959;27;20034;-75
2024/01/10 05:07:12;;;;;;;30.13;13.88;;;;;;;-11.67;93.61;145753.75;10636462;27;20046;-75
2024/01/10 05:12:14;;;;;;;36.40;15.27;;;;;;;-11.49;92.31;145800.59;10635073;27;20046;-75
2024/01/10 05:17:15;;;;;;;33.80;14.88;;;;;;;-11.20;88.58;145871.53;10635665;27;20043;-75
2024/01/10 05:22:17;;;;;;;30.73;13.27;;;;;;;-11.33;89.10;145838.59;10635414;27;20046;-75
2024/01/10 05:27:19;;;;;;;30.08;12.07;;;;;;;-11.51;89.78;145794.25;10635962;27;20391;-74
2024/01/10 05:32:21;;;;;;;31.70;13.68;;;;;;;-11.83;90.53;145714.50;10636366;27;20457;-74
2024/01/10 05:37:23;;;;;;;17.83;13.88;;;;;;;-11.88;91.37;145701.84;10635417;27;20070;-74
2024/01/10 05:42:25;;;;;;;23.48;14.20;;;;;;;-11.70;91.00;145747.38;10634850;27;20074;-75
2024/01/10 05:47:27;;;;;;;30.83;12.60;;;;;;;-11.76;91.53;145733.47;10633436;27;20495;-75
2024/01/10 05:52:30;;;;;;;32.47;14.35;;;;;;;-11.18;89.72;145877.88;10633763;27;20032;-75
2024/01/10 05:57:32;;;;;;;27.92;15.48;;;;;;;-11.42;89.26;145817.03;10633814;27;20135;-75
2024/01/10 06:02:34;;;;;;;32.47;16.42;;;;;;;-11.38;90.97;145825.91;10634843;27;20039;-76
2024/01/10 06:07:37;;;;;;;31.13;13.32;;;;;;;-11.64;90.16;145762.63;10634335;27;20035;-74
2024/01/10 06:12:39;;;;;;;28.67;15.52;;;;;;;-11.24;90.82;145861.44;10634420;27;20039;-75
2024/01/10 06:17:40;;;;;;;28.35;15.00;;;;;;;-11.75;89.52;145736.00;10634704;27;20476;-75
2024/01/10 06:22:43;;;;;;;29.55;16.55;;;;;;;-11.83;90.68;145714.50;10636309;27;20467;-75
2024/01/10 06:27:44;;;;;;;62.53;26.48;;;;;;;-11.82;92.31;145718.28;10636824;27;20039;-74
2024/01/10 06:32:46;;;;;;;29.38;15.63;;;;;;;-11.47;92.75;145804.38;10635157;27;20066;-74
2024/01/10 06:37:48;;;;;;;32.15;16.48;;;;;;;-10.99;88.07;145923.50;10616096;27;20039;-74
2024/01/10 06:42:50;;;;;;;37.15;16.80;;;;;;;-11.22;88.88;145866.47;10633677;27;20046;-75
2024/01/10 06:47:52;;;;;;;24.00;13.13;;;;;;;-11.31;91.04;145843.69;10632955;27;20101;-74
2024/01/10 06:52:54;;;;;;;32.45;14.70;;;;;;;-11.29;91.94;145849.97;10633130;27;20067;-75
2024/01/10 06:57:55;;;;;;;30.55;14.30;;;;;;;-11.44;92.65;145812.00;10630605;27;20047;-74
2024/01/10 07:03:02;;;;;;;32.85;15.57;;;;;;;-11.27;93.13;145853.81;10632535;27;20043;-76
2024/01/10 07:08:04;;;;;;;32.28;12.93;;;;;;;-11.49;92.38;145799.34;10634256;27;20046;-76
2024/01/10 07:13:06;;;;;;;32.58;14.50;;;;;;;-11.66;93.28;145757.53;10633133;27;20486;-75
2024/01/10 07:18:08;;;;;;;39.95;17.67;;;;;;;-11.17;93.35;145879.16;10630701;27;20092;-75
2024/01/10 07:23:10;;;;;;;37.20;17.85;;;;;;;-11.13;91.87;145889.28;10632057;27;20525;-75
2024/01/10 07:28:12;;;;;;;23.73;13.10;;;;;;;-11.45;91.49;145810.72;10630746;27;20108;-75
2024/01/10 07:33:14;;;;;;;26.45;15.73;;;;;;;-11.56;92.08;145782.84;10630381;27;20054;-76
2024/01/10 07:38:16;;;;;;;44.75;17.75;;;;;;;-11.43;93.19;145815.78;10630149;27;20042;-75
2024/01/10 07:43:17;;;;;;;44.58;16.75;;;;;;;-11.42;93.19;145817.03;10630408;27;20043;-75
2024/01/10 07:48:20;;;;;;;45.83;17.48;;;;;;;-11.33;94.02;145839.88;10631113;27;20043;-75
2024/01/10 07:53:22;;;;;;;23.25;15.25;;;;;;;-11.11;94.00;145893.06;10630932;27;20047;-75
2024/01/10 07:58:24;;;;;;;35.05;16.35;;;;;;;-11.10;93.14;145895.63;10631187;27;20049;-77
2024/01/10 08:03:25;;;;;;;41.15;16.73;;;;;;;-11.03;93.71;145914.63;10629286;27;20039;-75
2024/01/10 08:08:27;;;;;;;29.35;15.82;;;;;;;-11.08;93.36;145900.69;10629199;27;20031;-75
2024/01/10 08:13:30;;;;;;;33.22;17.50;;;;;;;-11.05;93.52;145909.56;10629400;27;20050;-75
2024/01/10 08:18:32;;;;;;;154.32;51.05;;;;;;;-10.90;93.75;145945.03;10627755;27;20062;-76
2024/01/10 08:23:35;;;;;;;39.65;15.80;;;;;;;-10.56;94.00;146030.00;10628494;27;20104;-76
2024/01/10 08:28:37;;;;;;;48.72;18.58;;;;;;;-10.23;92.70;146113.63;10628068;27;20035;-75
2024/01/10 08:33:39;;;;;;;33.75;18.98;;;;;;;-10.11;92.73;146142.81;10627527;27;20035;-74
2024/01/10 08:38:41;;;;;;;34.72;17.98;;;;;;;-10.07;92.41;146151.69;10628722;27;20254;-74
2024/01/10 08:43:43;;;;;;;40.50;17.08;;;;;;;-10.16;92.65;146131.41;10628419;27;20046;-75
2024/01/10 08:48:47;;;;;;;32.63;15.27;;;;;;;-10.05;93.59;146158.00;10629246;27;20406;-75
2024/01/10 08:53:49;;;;;;;31.35;15.90;;;;;;;-9.89;93.90;146197.34;10611046;28;20040;-75
2024/01/10 08:58:51;;;;;;;42.33;15.20;;;;;;;-9.55;92.94;146281.13;10627953;28;20089;-76
2024/01/10 09:03:53;;;;;;;33.35;15.48;;;;;;;-9.40;92.79;146319.19;10627442;27;20122;-74
2024/01/10 09:08:54;;;;;;;23.45;15.93;;;;;;;-9.45;92.08;146306.50;10628551;27;20518;-75
2024/01/10 09:13:56;;;;;;;31.05;15.07;;;;;;;-9.21;92.57;146367.44;10628229;27;20039;-74
2024/01/10 09:18:59;;;;;;;50.65;18.52;;;;;;;-8.71;90.27;146490.63;10628333;27;20043;-74
2024/01/10 09:24:04;;;;;;;39.88;15.52;;;;;;;-8.57;88.54;146526.19;10636780;27;20051;-75
2024/01/10 09:29:23;;;;;;;38.20;17.80;;;;;;;-8.46;87.74;146552.84;10636979;27;20031;-75
2024/01/10 09:34:25;;;;;;;27.40;14.15;;;;;;;-8.42;88.15;146563.00;10635313;27;20092;-76
2024/01/10 09:39:27;;;;;;;36.35;17.45;;;;;;;-8.35;87.81;146580.75;10634303;27;20070;-75
2024/01/10 09:44:30;;;;;;;30.40;16.45;;;;;;;-8.23;87.61;146611.28;10633443;27;20043;-76
2024/01/10 09:49:33;;;;;;;31.80;17.27;;;;;;;-8.31;86.71;146589.66;10633495;27;20126;-75
2024/01/10 09:54:40;;;;;;;29.13;15.98;;;;;;;-8.16;86.91;146627.75;10633152;27;20054;-74
2024/01/10 09:59:43;;;;;;;27.93;16.20;;;;;;;-8.06;87.01;146651.91;10633893;27;20047;-75
2024/01/10 10:04:56;;;;;;;35.13;16.02;;;;;;;-7.97;86.63;146674.78;10633424;27;20091;-75
2024/01/10 10:09:59;;;;;;;30.40;16.73;;;;;;;-7.73;86.16;146735.81;10632794;27;20039;-75
2024/01/10 10:15:10;;;;;;;30.48;14.85;;;;;;;-7.45;84.72;146804.47;10633990;27;20487;-75
2024/01/10 10:20:26;;;;;;;32.00;16.33;;;;;;;-7.46;84.02;146801.94;10635212;27;20039;-76
2024/01/10 10:25:35;;;;;;;36.72;16.27;;;;;;;-7.23;83.43;146860.41;10632843;27;20049;-76
2024/01/10 10:30:37;;;;;;;36.13;15.27;;;;;;;-6.86;82.12;146952.06;10633549;27;20452;-75
2024/01/10 10:35:39;;;;;;;31.60;14.68;;;;;;;-6.82;81.36;146962.19;10631996;27;20051;-75
2024/01/10 10:40:47;;;;;;;27.80;14.68;;;;;;;-6.71;81.73;146990.19;10629447;27;20491;-74
2024/01/10 10:45:50;;;;;;;23.35;14.55;;;;;;;-6.42;81.48;147062.75;10631676;27;20130;-75
2024/01/10 10:51:15;;;;;;;29.08;13.52;;;;;;;-6.24;78.42;147107.31;10631530;27;20047;-76
2024/01/10 10:56:17;;;;;;;22.10;12.60;;;;;;;-5.93;76.38;147183.66;10631180;27;20070;-75
2024/01/10 11:01:19;;;;;;;24.73;13.95;;;;;;;-5.74;76.36;147230.78;10629504;27;20121;-75
2024/01/10 11:06:22;;;;;;;27.90;15.02;;;;;;;-5.51;74.08;147288.09;10630528;27;20126;-75
2024/01/10 11:11:59;;;;;;;26.42;12.93;;;;;;;-5.22;71.34;147362.00;10630167;27;20106;-75
2024/01/10 11:17:18;;;;;;;30.35;13.68;;;;;;;-3.50;68.62;147791.72;10457708;28;20056;-75
2024/01/10 11:23:24;;;;;;;23.35;12.68;;;;;;;-1.00;65.02;148416.53;10442342;28;20049;-76
2024/01/10 11:28:27;;;;;;;23.10;13.35;;;;;;;2.55;53.39;149309.38;10331701;28;20058;-77
2024/01/10 11:33:34;;;;;;;23.70;14.60;;;;;;;2.89;45.83;149395.34;10336942;28;20065;-76
2024/01/10 11:38:43;;;;;;;22.55;13.23;;;;;;;4.17;47.98;149716.34;10336329;28;20527;-77
2024/01/10 11:43:45;;;;;;;20.40;12.98;;;;;;;5.49;42.06;150050.56;10317242;28;20153;-77
2024/01/10 11:48:47;;;;;;;16.95;12.38;;;;;;;5.56;39.97;150067.25;10317981;28;20058;-76
2024/01/10 11:53:50;;;;;;;14.55;11.70;;;;;;;5.72;40.11;150108.41;10435914;28;20623;-76
2024/01/10 11:58:55;;;;;;;15.18;13.18;;;;;;;5.35;41.07;150014.50;10545115;28;20051;-76
2024/01/10 12:03:58;;;;;;;14.43;12.10;;;;;;;4.63;42.90;149833.25;10585788;28;20459;-76
2024/01/10 12:09:16;;;;;;;20.38;15.63;;;;;;;4.13;43.22;149707.34;10586747;28;20122;-76
2024/01/10 12:14:18;;;;;;;15.00;10.52;;;;;;;3.39;44.29;149521.13;10584362;28;20040;-76
2024/01/10 12:19:19;;;;;;;16.70;10.57;;;;;;;3.61;45.58;149575.06;10583563;28;20101;-75
2024/01/10 12:24:21;;;;;;;13.95;9.30;;;;;;;2.73;43.98;149354.28;10584006;28;20380;-75
2024/01/10 12:29:25;;;;;;;15.45;10.27;;;;;;;3.13;43.61;149454.38;10583966;28;20043;-74
2024/01/10 12:34:26;;;;;;;10.80;9.05;;;;;;;2.81;43.89;149374.81;10582825;28;20067;-74
2024/01/10 12:39:31;;;;;;;15.30;10.80;;;;;;;1.68;46.90;149090.06;10584914;28;20052;-75
2024/01/10 12:44:33;;;;;;;13.52;10.63;;;;;;;0.63;48.75;148827.38;10585675;28;20040;-75
2024/01/10 12:49:37;;;;;;;20.20;12.32;;;;;;;0.13;49.19;148700.59;10618250;27;20047;-74
2024/01/10 12:54:40;;;;;;;21.10;14.00;;;;;;;-0.52;52.09;148539.34;10628719;27;20039;-75
2024/01/10 12:59:42;;;;;;;17.25;12.27;;;;;;;-0.54;52.52;148534.19;10636436;27;20110;-75
2024/01/10 13:04:44;;;;;;;17.83;10.85;;;;;;;-1.06;54.63;148403.75;10636332;27;20050;-74
2024/01/10 13:09:45;;;;;;;20.58;11.35;;;;;;;-1.12;54.06;148388.38;10635200;27;20419;-75
2024/01/10 13:14:47;;;;;;;12.43;9.77;;;;;;;-1.24;55.16;148357.66;10634756;27;20084;-74
2024/01/10 13:19:49;;;;;;;15.93;9.02;;;;;;;-1.14;53.43;148383.28;10634859;27;20043;-75
2024/01/10 13:24:52;;;;;;;10.68;7.72;;;;;;;-0.88;52.49;148447.25;10637943;27;20064;-75
2024/01/10 13:29:54;;;;;;;12.35;8.85;;;;;;;-1.14;54.19;148383.28;10633373;27;20568;-74
2024/01/10 13:34:56;;;;;;;11.40;8.82;;;;;;;-1.21;54.10;148365.34;10635375;27;20495;-75
2024/01/10 13:39:59;;;;;;;11.75;8.77;;;;;;;-1.24;54.97;148356.38;10632913;27;20055;-75
2024/01/10 13:45:01;;;;;;;10.10;8.10;;;;;;;-1.33;56.61;148335.97;10601228;27;20054;-75
2024/01/10 13:50:03;;;;;;;16.45;9.23;;;;;;;-0.79;55.50;148471.53;10590782;28;20051;-75
2024/01/10 13:55:06;;;;;;;16.65;10.48;;;;;;;-1.31;58.70;148341.06;10591048;28;20062;-75
2024/01/10 14:00:08;;;;;;;24.15;13.90;;;;;;;-1.31;59.16;148339.78;10589548;28;20043;-74
2024/01/10 14:05:13;;;;;;;24.40;14.65;;;;;;;-1.57;60.34;148274.56;10588738;28;20067;-75
2024/01/10 14:10:15;;;;;;;17.05;10.85;;;;;;;-1.26;57.94;148352.56;10588333;28;20392;-75
2024/01/10 14:15:17;;;;;;;16.75;11.52;;;;;;;-0.99;57.85;148419.06;10591220;28;20051;-75
2024/01/10 14:20:21;;;;;;;17.48;10.77;;;;;;;-1.19;59.15;148369.22;10591627;28;20456;-75
2024/01/10 14:25:23;;;;;;;10.57;7.78;;;;;;;-1.40;58.15;148318.06;10591521;28;20054;-73
2024/01/10 14:30:25;;;;;;;9.07;5.90;;;;;;;-1.07;56.07;148399.88;10589503;28;20066;-75
2024/01/10 14:35:27;;;;;;;6.88;4.22;;;;;;;-0.72;53.65;148486.88;10589937;28;20066;-75
2024/01/10 14:40:29;;;;;;;8.57;5.05;;;;;;;-1.03;54.38;148410.09;10588895;28;20122;-74
2024/01/10 14:45:31;;;;;;;12.05;4.60;;;;;;;-0.59;52.25;148521.41;10589112;28;20040;-75
2024/01/10 14:50:33;;;;;;;5.00;3.55;;;;;;;-0.88;53.79;148448.50;10589192;28;20050;-74
2024/01/10 14:55:35;;;;;;;4.78;3.53;;;;;;;-1.18;54.50;148373.03;10589822;28;20505;-74
2024/01/10 15:00:37;;;;;;;5.32;3.25;;;;;;;-1.08;53.90;148398.59;10587980;28;20039;-74
2024/01/10 15:05:41;;;;;;;9.10;5.32;;;;;;;-1.27;54.26;148350.03;10588941;28;20089;-75
2024/01/10 15:10:42;;;;;;;7.25;3.55;;;;;;;-1.25;53.97;148353.84;10590644;28;20043;-74
2024/01/10 15:15:45;;;;;;;6.57;4.45;;;;;;;-1.25;54.00;148355.13;10590562;28;20142;-75
2024/01/10 15:20:47;;;;;;;9.10;5.95;;;;;;;-1.16;54.05;148376.84;10588975;28;20065;-74
2024/01/10 15:25:52;;;;;;;17.13;12.70;;;;;;;-1.62;56.19;148263.06;10588661;28;20062;-75
2024/01/10 15:30:53;;;;;;;10.85;6.80;;;;;;;-1.89;57.47;148194.06;10586880;28;20503;-74
2024/01/10 15:35:55;;;;;;;7.72;6.35;;;;;;;-1.83;57.29;148210.66;10586844;28;20055;-74
2024/01/10 15:41:00;;;;;;;9.18;4.65;;;;;;;-1.65;57.40;148254.13;10586929;28;20094;-75
2024/01/10 15:46:05;;;;;;;6.22;4.70;;;;;;;-2.09;58.53;148145.47;10586863;28;20127;-75
2024/01/10 15:51:06;;;;;;;6.47;4.00;;;;;;;-2.09;58.70;148144.19;10585749;28;20069;-74
2024/01/10 15:56:08;;;;;;;6.63;4.72;;;;;;;-2.11;61.99;148140.38;10585400;28;20085;-74
2024/01/10 16:01:10;;;;;;;5.05;3.97;;;;;;;-2.13;62.62;148133.97;10585313;27;20039;-74
2024/01/10 16:06:12;;;;;;;7.80;4.85;;;;;;;-2.54;63.94;148033.03;10587041;28;20062;-74
2024/01/10 16:11:14;;;;;;;5.03;3.95;;;;;;;-2.92;65.27;147937.28;10585846;28;20039;-75
2024/01/10 16:16:25;;;;;;;7.40;5.00;;;;;;;-2.61;66.11;148013.91;10586036;28;20052;-75
2024/01/10 16:21:31;;;;;;;7.80;4.82;;;;;;;-2.94;66.57;147930.88;10586481;28;20040;-75
2024/01/10 16:26:33;;;;;;;9.00;6.07;;;;;;;-3.42;67.55;147810.88;10585440;28;20044;-74
2024/01/10 16:31:36;;;;;;;8.75;5.43;;;;;;;-3.56;69.05;147777.69;10584842;28;20043;-75
2024/01/10 16:36:38;;;;;;;8.13;4.85;;;;;;;-3.67;70.52;147748.38;10583675;28;20407;-74
2024/01/10 16:41:40;;;;;;;7.90;5.30;;;;;;;-3.81;71.37;147713.88;10584314;28;20095;-74
2024/01/10 16:46:42;;;;;;;9.77;5.88;;;;;;;-3.87;72.45;147699.88;10585439;28;20524;-74
2024/01/10 16:51:44;;;;;;;6.78;5.18;;;;;;;-3.97;72.89;147673.09;10585587;28;20548;-74
2024/01/10 16:56:46;;;;;;;7.80;5.25;;;;;;;-4.23;73.45;147609.31;10612327;28;20035;-75
2024/01/10 17:01:48;;;;;;;7.65;4.43;;;;;;;-4.28;73.90;147596.56;10626845;27;20039;-73
2024/01/10 17:06:49;;;;;;;6.70;5.13;;;;;;;-4.44;74.40;147557.00;10625878;27;20495;-74
2024/01/10 17:11:51;;;;;;;6.18;5.20;;;;;;;-4.40;75.07;147565.94;10625280;27;20054;-74
2024/01/10 17:16:53;;;;;;;7.50;5.65;;;;;;;-4.71;75.53;147488.16;10627266;27;20189;-74
2024/01/10 17:21:55;;;;;;;11.25;6.63;;;;;;;-4.95;76.77;147428.28;10626853;27;20514;-74
2024/01/10 17:26:57;;;;;;;8.77;6.80;;;;;;;-4.76;76.38;147476.69;10627070;27;20050;-75
2024/01/10 17:31:59;;;;;;;9.50;7.43;;;;;;;-4.80;77.00;147466.50;10626068;27;20066;-74
2024/01/10 17:37:01;;;;;;;11.10;7.35;;;;;;;-4.70;75.76;147491.97;10623823;28;20138;-73
2024/01/10 17:42:03;;;;;;;8.70;6.80;;;;;;;-4.74;76.69;147481.75;10628003;27;20047;-75
2024/01/10 17:47:05;;;;;;;11.27;7.47;;;;;;;-5.23;77.88;147358.16;10632149;27;20067;-74
2024/01/10 17:52:07;;;;;;;12.90;7.47;;;;;;;-5.23;78.81;147359.41;10632250;27;20054;-74
2024/01/10 17:57:09;;;;;;;12.43;7.72;;;;;;;-5.04;78.21;147405.34;10632596;27;20092;-74
2024/01/10 18:02:11;;;;;;;10.30;7.18;;;;;;;-5.23;78.28;147359.41;10632424;27;20035;-74
2024/01/10 18:07:13;;;;;;;13.95;7.35;;;;;;;-5.38;79.10;147321.22;10632301;27;20042;-74
2024/01/10 18:12:14;;;;;;;12.20;7.90;;;;;;;-5.44;79.41;147307.22;10631931;27;20043;-74
2024/01/10 18:17:16;;;;;;;16.92;10.88;;;;;;;-4.95;77.99;147429.53;10632362;27;20043;-74
2024/01/10 18:22:18;;;;;;;17.55;10.20;;;;;;;-5.30;76.88;147340.34;10632310;27;20039;-74
2024/01/10 18:27:20;;;;;;;18.55;10.35;;;;;;;-5.59;79.19;147268.97;10632448;27;20047;-74
2024/01/10 18:32:22;;;;;;;17.67;9.85;;;;;;;-5.81;80.56;147212.94;10632131;27;20447;-75
2024/01/10 18:37:23;;;;;;;16.52;10.85;;;;;;;-5.63;80.47;147258.78;10632246;27;20493;-74
2024/01/10 18:42:25;;;;;;;25.70;12.18;;;;;;;-5.53;80.36;147282.97;10630375;27;20050;-74
2024/01/10 18:47:27;;;;;;;17.88;10.05;;;;;;;-5.53;80.51;147282.97;10630582;27;20559;-74
2024/01/10 18:52:29;;;;;;;19.02;10.10;;;;;;;-6.11;81.12;147140.41;10628598;27;20039;-73
2024/01/10 18:57:31;;;;;;;18.50;9.60;;;;;;;-5.64;80.96;147257.50;10629272;27;20066;-74
2024/01/10 19:02:32;;;;;;;13.55;8.75;;;;;;;-5.80;80.45;147215.47;10631408;27;20070;-74
2024/01/10 19:07:34;;;;;;;10.50;8.10;;;;;;;-6.05;81.98;147153.16;10631507;27;20535;-76
2024/01/10 19:12:36;;;;;;;15.40;9.05;;;;;;;-5.79;81.56;147219.31;10631000;27;20035;-74
2024/01/10 19:17:38;;;;;;;12.50;8.85;;;;;;;-6.01;81.77;147163.34;10630745;27;20169;-74
2024/01/10 19:22:41;;;;;;;16.40;10.10;;;;;;;-5.93;81.48;147184.97;10630921;27;20047;-74
2024/01/10 19:27:42;;;;;;;13.85;10.00;;;;;;;-5.84;81.50;147207.84;10631334;27;20059;-74
2024/01/10 19:32:44;;;;;;;16.75;9.02;;;;;;;-5.75;79.60;147229.50;10630725;27;20047;-74
2024/01/10 19:37:49;;;;;;;24.88;11.25;;;;;;;-5.75;79.45;147229.50;10646902;27;20047;-75
2024/01/10 19:42:51;;;;;;;23.73;11.43;;;;;;;-5.85;80.13;147205.28;10630512;27;20535;-75
2024/01/10 19:47:53;;;;;;;36.83;17.98;;;;;;;-5.84;79.64;147206.59;10630133;27;20035;-75
2024/01/10 19:52:56;;;;;;;13.10;9.82;;;;;;;-5.98;79.99;147172.22;10630711;27;20447;-75
2024/01/10 19:57:58;;;;;;;18.35;10.43;;;;;;;-6.37;81.80;147074.22;10633246;27;20049;-75
2024/01/10 20:03:00;;;;;;;15.82;10.57;;;;;;;-6.51;83.10;147039.81;10629485;27;20039;-75
2024/01/10 20:08:02;;;;;;;15.45;9.88;;;;;;;-6.75;83.59;146980.00;10630518;27;20554;-74
2024/01/10 20:13:05;;;;;;;12.85;9.13;;;;;;;-6.41;84.51;147065.31;10630492;27;20027;-75
2024/01/10 20:18:09;;;;;;;15.25;9.02;;;;;;;-6.29;83.27;147093.28;10628971;27;20035;-74
2024/01/10 20:23:13;;;;;;;15.48;9.57;;;;;;;-6.57;82.46;147024.56;10630893;27;20039;-75
2024/01/10 20:28:17;;;;;;;13.80;8.93;;;;;;;-6.89;84.44;146944.41;10629759;27;20102;-75
2024/01/10 20:33:20;;;;;;;12.07;9.18;;;;;;;-7.08;85.72;146896.03;10629493;27;20069;-74
2024/01/10 20:38:21;;;;;;;14.55;9.48;;;;;;;-7.16;86.70;146878.25;10629084;27;20047;-74
2024/01/10 20:43:26;;;;;;;15.93;9.70;;;;;;;-7.07;86.47;146898.59;10627129;28;20508;-75
2024/01/10 20:48:28;;;;;;;14.20;10.05;;;;;;;-6.57;84.80;147024.56;10627988;28;20130;-74
2024/01/10 20:53:30;;;;;;;13.18;8.75;;;;;;;-6.88;85.35;146948.19;10629069;27;20039;-74
2024/01/10 20:58:33;;;;;;;24.90;8.40;;;;;;;-6.93;86.16;146935.47;10626835;28;20043;-75
2024/01/10 21:03:35;;;;;;;17.92;9.60;;;;;;;-6.83;85.26;146959.66;10628187;27;20043;-75
2024/01/10 21:08:37;;;;;;;11.40;7.97;;;;;;;-7.16;86.29;146876.97;10627902;27;20039;-75
2024/01/10 21:13:39;;;;;;;14.45;9.15;;;;;;;-7.06;86.83;146901.13;10628971;27;20039;-75
2024/01/10 21:18:41;;;;;;;14.95;9.85;;;;;;;-7.23;86.69;146860.41;10633815;27;20039;-75
2024/01/10 21:23:43;;;;;;;18.00;10.50;;;;;;;-7.06;86.86;146902.41;10634318;27;20460;-74
2024/01/10 21:28:45;;;;;;;16.23;9.77;;;;;;;-7.39;85.66;146819.75;10635025;27;20063;-74
2024/01/10 21:33:46;;;;;;;11.82;9.00;;;;;;;-7.60;87.88;146766.34;10651360;27;20035;-74
2024/01/10 21:38:48;;;;;;;16.23;9.13;;;;;;;-7.18;87.57;146873.13;10634500;27;20061;-75
2024/01/10 21:43:51;;;;;;;20.45;9.15;;;;;;;-7.40;87.28;146818.44;10633102;27;20066;-75
2024/01/10 21:48:53;;;;;;;14.77;7.25;;;;;;;-7.37;87.23;146824.81;10634324;27;20043;-75
2024/01/10 21:53:55;;;;;;;13.15;7.90;;;;;;;-7.58;88.90;146771.41;10634419;27;20068;-74
2024/01/10 21:58:57;;;;;;;11.45;7.38;;;;;;;-7.80;88.74;146718.00;10635449;27;20072;-74
2024/01/10 22:03:59;;;;;;;14.30;9.27;;;;;;;-7.63;89.76;146759.97;10650489;27;20088;-75
2024/01/10 22:09:01;;;;;;;12.90;9.00;;;;;;;-7.39;88.54;146819.75;10633367;27;20118;-74
2024/01/10 22:14:03;;;;;;;14.80;9.55;;;;;;;-7.39;88.94;146819.75;10633263;27;20062;-74
2024/01/10 22:19:05;;;;;;;13.77;8.90;;;;;;;-7.57;89.80;146773.94;10633028;27;20042;-73
2024/01/10 22:24:07;;;;;;;16.58;8.88;;;;;;;-7.85;89.02;146704.03;10632207;27;20084;-73
2024/01/10 22:29:09;;;;;;;10.55;6.72;;;;;;;-8.01;91.57;146664.59;10632568;27;20047;-74
2024/01/10 22:34:11;;;;;;;10.70;8.77;;;;;;;-7.56;89.59;146776.50;10632972;27;20074;-73
2024/01/10 22:39:13;;;;;;;17.27;8.80;;;;;;;-7.80;89.27;146716.72;10632971;27;20092;-75